Time;durP1;ratioP1;P1;durP2;ratioP2;P2;SDS_P1;SDS_P2;PMS_P1;PMS_P2;Temp;Humidity;BMP_temperature;BMP_pressure;BME280_temperature;BME280_humidity;BME280_pressure;Samples;Min_cycle;Max_cycle;Signal;HPM_P1;HPM_P2
2021/05/02 00:01:26;;;;;;;12.40;10.90;;;6.50;99.90;;;;;;4981360;28;20205;-75
2021/05/02 00:03:52;;;;;;;14.00;11.57;;;6.50;99.90;;;;;;4981027;28;20175;-75
2021/05/02 00:06:17;;;;;;;13.93;11.53;;;6.50;99.90;;;;;;4981365;28;20187;-76
2021/05/02 00:08:43;;;;;;;13.57;11.37;;;6.50;99.90;;;;;;4981533;28;20180;-75
2021/05/02 00:11:09;;;;;;;14.17;11.00;;;6.40;99.90;;;;;;4981371;28;20258;-76
2021/05/02 00:13:36;;;;;;;14.20;11.70;;;6.40;99.90;;;;;;4981117;28;20238;-76
2021/05/02 00:16:01;;;;;;;13.40;10.70;;;6.40;99.90;;;;;;4997448;28;20214;-76
2021/05/02 00:18:27;;;;;;;12.67;10.87;;;6.40;99.90;;;;;;4997521;28;20215;-76
2021/05/02 00:20:54;;;;;;;14.47;11.97;;;6.30;99.90;;;;;;4980897;28;20250;-76
2021/05/02 00:23:19;;;;;;;13.90;11.37;;;6.30;99.90;;;;;;4981057;28;20207;-76
2021/05/02 00:25:45;;;;;;;15.27;12.00;;;6.30;99.90;;;;;;4997130;28;20581;-75
2021/05/02 00:28:10;;;;;;;17.87;12.63;;;6.20;99.90;;;;;;4997094;28;20172;-75
2021/05/02 00:30:36;;;;;;;15.70;12.40;;;6.20;99.90;;;;;;4980782;28;20227;-75
2021/05/02 00:33:02;;;;;;;16.13;12.23;;;6.20;99.90;;;;;;4980728;28;20676;-77
2021/05/02 00:35:27;;;;;;;15.03;12.17;;;6.10;99.90;;;;;;4996893;28;20553;-75
2021/05/02 00:37:53;;;;;;;18.33;13.73;;;6.10;99.90;;;;;;4980702;28;20193;-76
2021/05/02 00:40:40;;;;;;;17.00;12.77;;;6.10;99.90;;;;;;4980531;28;20710;-76
2021/05/02 00:43:22;;;;;;;15.07;12.57;;;6.10;99.90;;;;;;4981521;28;20688;-75
2021/05/02 00:45:50;;;;;;;18.53;13.23;;;6.00;99.90;;;;;;4997393;28;20183;-75
2021/05/02 00:48:47;;;;;;;16.93;13.10;;;6.00;99.90;;;;;;4996889;28;20178;-76
2021/05/02 00:51:14;;;;;;;16.07;13.47;;;6.00;99.90;;;;;;5008703;28;20211;-75
2021/05/02 00:54:05;;;;;;;18.03;14.00;;;5.90;99.90;;;;;;4980268;28;20186;-75
2021/05/02 00:56:34;;;;;;;18.60;13.47;;;5.90;99.90;;;;;;5013176;28;20543;-76
2021/05/02 00:59:04;;;;;;;16.40;13.27;;;5.90;99.90;;;;;;4981108;28;20189;-75
2021/05/02 01:01:36;;;;;;;19.47;13.87;;;5.80;99.90;;;;;;5012521;28;20199;-76
2021/05/02 01:04:02;;;;;;;18.53;13.63;;;5.80;99.90;;;;;;4996375;28;20171;-76
2021/05/02 01:06:30;;;;;;;18.37;14.30;;;5.70;99.90;;;;;;4996538;28;20563;-76
2021/05/02 01:08:57;;;;;;;18.73;13.43;;;5.80;99.90;;;;;;4995706;28;20170;-76
2021/05/02 01:11:23;;;;;;;18.67;14.00;;;5.70;99.90;;;;;;4980745;28;20597;-75
2021/05/02 01:13:59;;;;;;;17.33;13.50;;;5.70;99.90;;;;;;4996007;28;20172;-76
2021/05/02 01:16:31;;;;;;;18.37;13.70;;;5.70;99.90;;;;;;4996156;28;20175;-75
2021/05/02 01:18:57;;;;;;;18.77;14.60;;;5.70;99.90;;;;;;4980829;28;20523;-76
2021/05/02 01:21:35;;;;;;;18.93;14.77;;;5.70;99.90;;;;;;4979765;28;20226;-75
2021/05/02 01:24:01;;;;;;;19.50;14.53;;;5.60;99.90;;;;;;4981519;28;20653;-75
2021/05/02 01:26:27;;;;;;;19.13;14.20;;;5.60;99.90;;;;;;4979862;28;20180;-75
2021/05/02 01:28:54;;;;;;;19.87;14.77;;;5.50;99.90;;;;;;4996071;28;20523;-75
2021/05/02 01:31:20;;;;;;;20.93;14.43;;;5.50;99.90;;;;;;4996165;28;20187;-76
2021/05/02 01:33:46;;;;;;;20.67;14.83;;;5.50;99.90;;;;;;4979444;28;20221;-75
2021/05/02 01:36:12;;;;;;;18.80;14.40;;;5.50;99.90;;;;;;4996089;28;20226;-75
2021/05/02 01:38:38;;;;;;;17.70;13.33;;;5.50;99.90;;;;;;4979534;28;20178;-76
2021/05/02 01:41:03;;;;;;;20.13;14.27;;;5.50;99.90;;;;;;4995854;28;20221;-76
2021/05/02 01:43:29;;;;;;;19.60;14.00;;;5.40;99.90;;;;;;4995401;28;20259;-75
2021/05/02 01:45:55;;;;;;;19.40;13.67;;;5.40;99.90;;;;;;4979506;28;20270;-75
2021/05/02 01:48:21;;;;;;;18.10;13.57;;;5.40;99.90;;;;;;4995893;28;20176;-76
2021/05/02 01:50:51;;;;;;;23.07;14.30;;;5.30;99.90;;;;;;4995997;28;20214;-75
2021/05/02 01:53:17;;;;;;;16.57;13.07;;;5.40;99.90;;;;;;4979258;28;20190;-77
2021/05/02 01:55:43;;;;;;;17.63;12.90;;;5.40;99.90;;;;;;4979901;28;20266;-76
2021/05/02 01:58:09;;;;;;;19.10;13.63;;;5.40;99.90;;;;;;4980131;28;20218;-76
2021/05/02 02:01:01;;;;;;;17.97;13.53;;;5.40;99.90;;;;;;4997007;28;20199;-77
2021/05/02 02:03:26;;;;;;;19.07;13.93;;;5.40;99.90;;;;;;4986201;28;20233;-79
2021/05/02 02:05:53;;;;;;;17.87;13.23;;;5.30;99.90;;;;;;4999056;28;20179;-79
2021/05/02 02:08:19;;;;;;;15.70;12.23;;;5.30;99.90;;;;;;4984390;28;20181;-79
2021/05/02 02:10:48;;;;;;;21.07;13.03;;;5.30;99.90;;;;;;4999003;28;20290;-79
2021/05/02 02:13:16;;;;;;;16.60;12.97;;;5.30;99.90;;;;;;4983532;28;20183;-80
2021/05/02 02:15:42;;;;;;;18.70;13.27;;;5.30;99.90;;;;;;4984702;28;20229;-79
2021/05/02 02:18:08;;;;;;;16.27;12.07;;;5.20;99.90;;;;;;5000021;28;20210;-79
2021/05/02 02:20:40;;;;;;;17.83;12.10;;;5.20;99.90;;;;;;4997798;28;20618;-76
2021/05/02 02:23:09;;;;;;;18.57;13.07;;;5.10;99.90;;;;;;4995968;28;20261;-77
2021/05/02 02:25:40;;;;;;;16.80;12.30;;;5.10;99.90;;;;;;4980739;28;20178;-78
2021/05/02 02:28:06;;;;;;;17.53;11.83;;;5.10;99.90;;;;;;4980117;28;20255;-78
2021/05/02 02:30:31;;;;;;;17.57;12.47;;;5.10;99.90;;;;;;4979500;28;20638;-78
2021/05/02 02:32:58;;;;;;;15.03;12.27;;;5.20;99.90;;;;;;4979641;28;20555;-78
2021/05/02 02:35:24;;;;;;;16.67;12.00;;;5.20;99.90;;;;;;4979847;28;20325;-77
2021/05/02 02:37:54;;;;;;;20.27;12.97;;;5.20;99.90;;;;;;4980326;28;20246;-76
2021/05/02 02:40:20;;;;;;;16.50;12.30;;;5.10;99.90;;;;;;4980937;28;20221;-76
2021/05/02 02:42:46;;;;;;;17.63;13.13;;;5.10;99.90;;;;;;4979853;28;20214;-77
2021/05/02 02:45:12;;;;;;;16.07;12.43;;;5.00;99.90;;;;;;4980654;28;20262;-76
2021/05/02 02:47:46;;;;;;;15.37;11.77;;;5.00;99.90;;;;;;4980656;28;20183;-76
2021/05/02 02:50:14;;;;;;;18.57;12.20;;;5.00;99.90;;;;;;5014760;28;20187;-81
2021/05/02 02:52:53;;;;;;;16.07;11.73;;;5.00;99.90;;;;;;4997506;28;20187;-82
2021/05/02 02:55:22;;;;;;;15.73;11.60;;;5.00;99.90;;;;;;5015474;28;20285;-80
2021/05/02 02:58:20;;;;;;;15.57;11.40;;;4.90;99.90;;;;;;4999149;28;20171;-80
2021/05/02 03:00:46;;;;;;;15.27;11.27;;;4.90;99.90;;;;;;5017053;28;20277;-80
2021/05/02 03:03:13;;;;;;;15.50;11.50;;;4.90;99.90;;;;;;4998944;28;20236;-81
2021/05/02 03:05:39;;;;;;;17.07;11.83;;;4.90;99.90;;;;;;4998678;28;20453;-80
2021/05/02 03:08:07;;;;;;;14.40;10.77;;;5.00;99.90;;;;;;4997335;28;20210;-81
2021/05/02 03:10:32;;;;;;;13.13;10.80;;;5.10;99.90;;;;;;5014222;28;20245;-80
2021/05/02 03:12:59;;;;;;;17.27;11.53;;;5.10;99.90;;;;;;5013393;28;20189;-81
2021/05/02 03:15:25;;;;;;;16.00;11.27;;;5.10;99.90;;;;;;4994661;28;20193;-78
2021/05/02 03:18:06;;;;;;;14.67;11.30;;;5.10;99.90;;;;;;4996070;28;20250;-78
2021/05/02 03:20:36;;;;;;;14.00;11.27;;;5.10;99.90;;;;;;5012143;28;20203;-79
2021/05/02 03:23:30;;;;;;;15.80;11.63;;;5.20;99.90;;;;;;5027122;28;20246;-79
2021/05/02 03:26:04;;;;;;;17.83;11.50;;;5.20;99.90;;;;;;5002975;28;20190;-79
2021/05/02 03:28:33;;;;;;;15.60;10.93;;;5.10;99.90;;;;;;4986114;28;20249;-78
2021/05/02 03:31:00;;;;;;;15.20;11.77;;;5.10;99.90;;;;;;4999053;28;20204;-79
2021/05/02 03:33:25;;;;;;;14.87;11.90;;;5.00;99.90;;;;;;5002625;28;20184;-78
2021/05/02 03:35:51;;;;;;;17.67;12.30;;;5.00;99.90;;;;;;4992588;28;20280;-78
2021/05/02 03:38:28;;;;;;;15.83;12.00;;;5.00;99.90;;;;;;5006894;28;20175;-79
2021/05/02 03:40:54;;;;;;;18.60;13.63;;;5.10;99.90;;;;;;5020449;23;20595;-84
2021/05/02 03:43:20;;;;;;;20.20;13.13;;;5.10;99.90;;;;;;5056694;28;20221;-81
2021/05/02 03:45:46;;;;;;;20.67;13.23;;;5.10;99.90;;;;;;5073791;28;20183;-81
2021/05/02 03:48:11;;;;;;;21.90;14.40;;;5.20;99.90;;;;;;5073631;28;20196;-81
2021/05/02 03:50:37;;;;;;;20.60;13.43;;;5.20;99.90;;;;;;5073637;28;20196;-81
2021/05/02 03:53:03;;;;;;;17.37;13.37;;;5.20;99.90;;;;;;5073432;28;20177;-79
2021/05/02 03:55:29;;;;;;;18.40;12.93;;;5.30;99.90;;;;;;5073617;28;20181;-77
2021/05/02 03:57:54;;;;;;;19.73;13.77;;;5.30;99.90;;;;;;5056716;28;20585;-78
2021/05/02 04:00:20;;;;;;;19.07;13.30;;;5.40;99.90;;;;;;5073800;28;20176;-80
2021/05/02 04:02:46;;;;;;;17.50;13.17;;;5.40;99.90;;;;;;5073085;28;20220;-76
2021/05/02 04:05:11;;;;;;;18.87;13.57;;;5.40;99.90;;;;;;5073449;28;20200;-76
2021/05/02 04:07:37;;;;;;;18.23;13.23;;;5.50;99.90;;;;;;5073413;28;20174;-78
2021/05/02 04:10:03;;;;;;;16.87;12.33;;;5.50;99.90;;;;;;5073276;28;20179;-80
2021/05/02 04:12:29;;;;;;;17.30;11.50;;;5.60;99.90;;;;;;5056262;28;20205;-77
2021/05/02 04:14:54;;;;;;;16.17;11.53;;;5.60;99.90;;;;;;5073215;28;20693;-80
2021/05/02 04:17:20;;;;;;;14.37;11.33;;;5.60;99.90;;;;;;5056547;28;20272;-79
2021/05/02 04:19:47;;;;;;;16.57;11.40;;;5.60;99.90;;;;;;5073049;28;20180;-76
2021/05/02 04:22:16;;;;;;;14.23;11.27;;;5.60;99.90;;;;;;5072808;28;20204;-76
2021/05/02 04:24:42;;;;;;;15.07;11.03;;;5.60;99.90;;;;;;5056274;28;20188;-76
2021/05/02 04:27:08;;;;;;;15.67;11.03;;;5.70;99.90;;;;;;5056360;28;20198;-76
2021/05/02 04:29:33;;;;;;;17.87;11.13;;;5.70;99.90;;;;;;5056178;28;20224;-78
2021/05/02 04:31:59;;;;;;;14.07;10.50;;;5.70;99.90;;;;;;5072707;28;20571;-79
2021/05/02 04:34:25;;;;;;;13.77;10.37;;;5.70;99.90;;;;;;5056338;28;20201;-82
2021/05/02 04:36:51;;;;;;;12.80;9.60;;;5.70;99.90;;;;;;5072976;28;20200;-76
2021/05/02 04:39:17;;;;;;;17.40;10.43;;;5.70;99.90;;;;;;5072832;28;20189;-80
2021/05/02 04:41:42;;;;;;;15.37;10.03;;;5.80;99.90;;;;;;5072232;28;20213;-79
2021/05/02 04:44:08;;;;;;;14.87;10.07;;;5.80;99.90;;;;;;5055709;28;20268;-81
2021/05/02 04:46:34;;;;;;;13.70;9.43;;;5.80;99.90;;;;;;5056043;28;20207;-77
2021/05/02 04:49:00;;;;;;;12.17;9.37;;;5.80;99.90;;;;;;5056171;28;20271;-78
2021/05/02 04:51:26;;;;;;;15.40;9.87;;;5.80;99.90;;;;;;5072471;28;20194;-78
2021/05/02 04:53:52;;;;;;;13.37;8.83;;;5.90;99.90;;;;;;5072287;28;20181;-78
2021/05/02 04:56:17;;;;;;;11.63;8.77;;;5.90;99.90;;;;;;5072344;28;20251;-76
2021/05/02 04:58:43;;;;;;;12.83;9.73;;;5.90;99.90;;;;;;5055768;28;20212;-76
2021/05/02 05:01:09;;;;;;;11.23;8.90;;;6.00;99.90;;;;;;5055581;28;20206;-78
2021/05/02 05:03:35;;;;;;;12.97;9.57;;;6.00;99.90;;;;;;5072046;28;20209;-76
2021/05/02 05:06:00;;;;;;;14.67;9.07;;;6.00;99.90;;;;;;5072121;28;20668;-76
2021/05/02 05:08:26;;;;;;;17.67;9.60;;;6.10;99.90;;;;;;5073496;28;20178;-79
2021/05/02 05:10:51;;;;;;;13.57;8.77;;;6.10;99.90;;;;;;5072127;28;20565;-76
2021/05/02 05:13:17;;;;;;;12.00;8.90;;;6.10;99.90;;;;;;5072039;28;20549;-77
2021/05/02 05:15:42;;;;;;;12.53;9.10;;;6.10;99.90;;;;;;5072435;28;20644;-79
2021/05/02 05:18:08;;;;;;;11.63;8.40;;;6.20;99.90;;;;;;5071886;28;20624;-78
2021/05/02 05:20:33;;;;;;;12.40;8.97;;;6.30;99.90;;;;;;5071964;28;20272;-76
2021/05/02 05:22:59;;;;;;;10.20;8.23;;;6.40;99.90;;;;;;5071629;28;20253;-76
2021/05/02 05:25:25;;;;;;;13.10;8.40;;;6.40;99.90;;;;;;5055212;28;20189;-77
2021/05/02 05:27:50;;;;;;;14.13;8.40;;;6.40;99.90;;;;;;5071755;28;20169;-80
2021/05/02 05:30:16;;;;;;;10.10;8.40;;;6.50;99.90;;;;;;5071870;28;20595;-77
2021/05/02 05:32:41;;;;;;;13.77;8.13;;;6.50;99.90;;;;;;5054597;28;20589;-76
2021/05/02 05:35:08;;;;;;;12.20;9.27;;;6.60;99.90;;;;;;5071720;28;20184;-77
2021/05/02 05:37:33;;;;;;;13.40;8.70;;;6.50;99.90;;;;;;5071850;28;20177;-76
2021/05/02 05:39:59;;;;;;;11.97;8.47;;;6.30;99.90;;;;;;5054948;28;20177;-76
2021/05/02 05:42:25;;;;;;;12.53;8.67;;;6.30;99.90;;;;;;5070878;28;20233;-78
2021/05/02 05:44:50;;;;;;;10.30;7.80;;;6.30;99.90;;;;;;5070906;28;20166;-76
2021/05/02 05:47:16;;;;;;;12.07;8.30;;;6.40;99.90;;;;;;5054685;28;20213;-76
2021/05/02 05:49:42;;;;;;;14.10;7.83;;;6.30;99.90;;;;;;5054698;28;20174;-76
2021/05/02 05:52:08;;;;;;;11.67;8.37;;;6.30;99.90;;;;;;5054636;28;20193;-82
2021/05/02 05:54:37;;;;;;;10.73;7.73;;;6.20;99.90;;;;;;5054086;28;20197;-78
2021/05/02 05:57:03;;;;;;;13.43;7.80;;;6.30;99.90;;;;;;5071372;28;20177;-81
2021/05/02 05:59:29;;;;;;;12.00;7.60;;;6.40;99.90;;;;;;5038014;28;20208;-79
2021/05/02 06:01:54;;;;;;;12.07;7.93;;;6.30;99.90;;;;;;5071139;28;20207;-76
2021/05/02 06:04:20;;;;;;;10.50;7.40;;;6.30;99.90;;;;;;5054250;28;20207;-77
2021/05/02 06:06:45;;;;;;;9.37;6.97;;;6.40;99.90;;;;;;5054491;28;20181;-79
2021/05/02 06:09:11;;;;;;;8.17;6.60;;;6.40;99.90;;;;;;5071106;28;20173;-79
2021/05/02 06:11:37;;;;;;;11.57;6.40;;;6.60;99.90;;;;;;5071150;28;20188;-76
2021/05/02 06:14:03;;;;;;;7.90;5.73;;;6.60;99.90;;;;;;5070852;28;20176;-76
2021/05/02 06:16:29;;;;;;;9.50;5.73;;;6.60;99.90;;;;;;5037862;28;20218;-76
2021/05/02 06:18:55;;;;;;;9.97;5.30;;;6.60;99.90;;;;;;5054123;28;20178;-78
2021/05/02 06:21:21;;;;;;;6.70;5.57;;;6.60;99.90;;;;;;5054202;28;20220;-76
2021/05/02 06:23:50;;;;;;;9.37;5.40;;;6.60;99.90;;;;;;5048952;28;20668;-76
2021/05/02 06:26:17;;;;;;;8.87;5.30;;;6.50;99.90;;;;;;5065075;28;20194;-78
2021/05/02 06:28:42;;;;;;;9.90;5.90;;;6.60;99.90;;;;;;5050659;28;20647;-77
2021/05/02 06:31:08;;;;;;;10.17;4.93;;;6.60;99.90;;;;;;5070696;28;20192;-78
2021/05/02 06:33:35;;;;;;;8.27;4.67;;;6.60;99.90;;;;;;5054013;28;20643;-79
2021/05/02 06:36:01;;;;;;;9.10;4.70;;;6.70;99.90;;;;;;5037369;28;20195;-79
2021/05/02 06:38:27;;;;;;;6.33;4.67;;;6.80;99.90;;;;;;5054089;28;20176;-79
2021/05/02 06:40:52;;;;;;;10.20;4.70;;;6.90;99.90;;;;;;5036490;28;20224;-78
2021/05/02 06:43:18;;;;;;;8.20;4.50;;;7.00;99.90;;;;;;5053821;28;20592;-80
2021/05/02 06:45:43;;;;;;;6.77;4.47;;;7.20;99.90;;;;;;5037197;28;20169;-76
2021/05/02 06:48:09;;;;;;;6.50;3.80;;;7.20;99.90;;;;;;5037491;28;20180;-76
2021/05/02 06:50:35;;;;;;;5.83;4.00;;;7.40;99.90;;;;;;5070578;28;20170;-76
2021/05/02 06:53:00;;;;;;;7.43;3.57;;;7.70;99.90;;;;;;5053857;28;20658;-79
2021/05/02 06:55:26;;;;;;;6.87;3.07;;;7.70;99.90;;;;;;5050063;28;20177;-76
2021/05/02 06:57:51;;;;;;;7.93;3.23;;;7.80;99.90;;;;;;5034032;28;20179;-76
2021/05/02 07:00:18;;;;;;;5.50;2.60;;;7.90;99.90;;;;;;5033715;28;20266;-76
2021/05/02 07:02:43;;;;;;;7.60;2.80;;;8.00;99.90;;;;;;5033498;28;20202;-77
2021/05/02 07:05:09;;;;;;;5.97;2.67;;;8.10;99.90;;;;;;5051728;28;20175;-76
2021/05/02 07:07:35;;;;;;;5.57;2.80;;;8.20;99.90;;;;;;5055029;28;20549;-74
2021/05/02 07:10:00;;;;;;;3.90;2.40;;;8.40;99.90;;;;;;5054606;28;20170;-76
2021/05/02 07:12:26;;;;;;;3.97;2.20;;;8.40;99.90;;;;;;5054178;28;20695;-73
2021/05/02 07:14:52;;;;;;;4.47;2.40;;;8.70;99.90;;;;;;5054340;28;20178;-72
2021/05/02 07:17:17;;;;;;;5.77;2.30;;;9.30;99.90;;;;;;5037676;28;20225;-74
2021/05/02 07:19:43;;;;;;;3.33;2.20;;;10.30;99.90;;;;;;5061718;28;20179;-73
2021/05/02 07:22:09;;;;;;;6.00;2.13;;;11.30;99.90;;;;;;5055282;28;20226;-73
2021/05/02 07:24:34;;;;;;;3.73;1.83;;;11.30;99.90;;;;;;5037370;28;20253;-73
2021/05/02 07:27:00;;;;;;;3.00;1.67;;;11.00;99.90;;;;;;5021069;28;20175;-74
2021/05/02 07:29:25;;;;;;;4.93;1.67;;;10.90;99.90;;;;;;5037746;28;20635;-75
2021/05/02 07:31:51;;;;;;;3.33;1.73;;;10.40;99.90;;;;;;5037793;28;20666;-73
2021/05/02 07:34:17;;;;;;;2.50;1.50;;;10.50;99.90;;;;;;5054186;28;20659;-73
2021/05/02 07:36:42;;;;;;;4.87;1.70;;;10.10;99.90;;;;;;5054290;28;20543;-73
2021/05/02 07:39:08;;;;;;;3.00;1.60;;;10.30;99.90;;;;;;5054081;28;20174;-73
2021/05/02 07:41:33;;;;;;;2.60;1.80;;;10.60;99.90;;;;;;5053912;28;20266;-73
2021/05/02 07:43:59;;;;;;;4.00;1.57;;;11.00;99.90;;;;;;5053690;28;20675;-73
2021/05/02 07:46:25;;;;;;;3.50;1.70;;;11.70;99.90;;;;;;5020690;28;20185;-73
2021/05/02 07:48:50;;;;;;;4.57;1.57;;;12.00;99.90;;;;;;5053895;28;20181;-73
2021/05/02 07:51:16;;;;;;;2.60;1.33;;;12.10;99.90;;;;;;5041416;28;20571;-73
2021/05/02 07:53:42;;;;;;;4.57;1.60;;;11.90;99.90;;;;;;5073102;28;20200;-73
2021/05/02 07:56:07;;;;;;;2.00;1.40;;;11.40;99.90;;;;;;5073578;28;20180;-74
2021/05/02 07:58:33;;;;;;;5.63;1.67;;;11.00;99.90;;;;;;5053487;28;20177;-74
2021/05/02 08:00:58;;;;;;;4.67;1.50;;;10.80;99.90;;;;;;5053537;28;20209;-74
2021/05/02 08:03:24;;;;;;;3.43;1.43;;;10.30;99.90;;;;;;5036492;28;20300;-75
2021/05/02 08:05:51;;;;;;;2.13;1.47;;;10.00;99.90;;;;;;5053834;28;20174;-75
2021/05/02 08:08:16;;;;;;;3.90;1.57;;;9.90;99.90;;;;;;5070606;28;20197;-80
2021/05/02 08:10:42;;;;;;;6.23;1.53;;;9.90;99.90;;;;;;5054038;28;20231;-75
2021/05/02 08:13:07;;;;;;;3.73;1.57;;;9.80;99.90;;;;;;5070074;28;20182;-75
2021/05/02 08:15:33;;;;;;;3.20;1.67;;;9.90;99.90;;;;;;5056583;28;20230;-75
2021/05/02 08:18:00;;;;;;;2.20;1.30;;;10.00;99.90;;;;;;5064869;28;20183;-76
2021/05/02 08:20:26;;;;;;;4.97;1.50;;;10.30;99.90;;;;;;5042813;28;20700;-76
2021/05/02 08:22:52;;;;;;;3.63;1.53;;;10.80;99.90;;;;;;5072845;28;20199;-78
2021/05/02 08:25:18;;;;;;;2.27;1.30;;;11.20;99.90;;;;;;5056612;28;20187;-77
2021/05/02 08:27:44;;;;;;;4.60;1.50;;;11.20;99.90;;;;;;5073218;28;20180;-75
2021/05/02 08:30:10;;;;;;;3.50;1.17;;;11.30;99.90;;;;;;5056226;28;20597;-76
2021/05/02 08:32:35;;;;;;;5.53;1.33;;;11.30;99.90;;;;;;5072698;28;20273;-76
2021/05/02 08:35:02;;;;;;;2.53;1.50;;;11.10;99.90;;;;;;5056500;28;20196;-75
2021/05/02 08:37:28;;;;;;;3.37;1.30;;;10.90;99.90;;;;;;5073119;28;20168;-77
2021/05/02 08:39:54;;;;;;;4.07;1.60;;;10.60;99.90;;;;;;5073214;28;20167;-76
2021/05/02 08:42:19;;;;;;;3.27;1.50;;;10.60;99.90;;;;;;5055872;28;20637;-76
2021/05/02 08:44:45;;;;;;;3.30;1.70;;;10.70;99.90;;;;;;5053771;28;20226;-75
2021/05/02 08:47:13;;;;;;;2.87;1.40;;;10.70;99.90;;;;;;5036372;28;20176;-75
2021/05/02 08:49:39;;;;;;;3.07;1.30;;;10.60;99.90;;;;;;5052711;28;20172;-75
2021/05/02 08:52:05;;;;;;;5.33;1.40;;;10.90;99.90;;;;;;5053013;28;20226;-74
2021/05/02 08:54:33;;;;;;;3.77;1.30;;;11.40;99.90;;;;;;5054102;28;20180;-75
2021/05/02 08:56:59;;;;;;;1.40;1.00;;;11.80;99.90;;;;;;5020519;28;20217;-80
2021/05/02 08:59:24;;;;;;;3.57;1.23;;;12.30;99.90;;;;;;5019385;28;20236;-75
2021/05/02 09:01:50;;;;;;;1.97;1.10;;;12.90;99.90;;;;;;5019232;28;20208;-74
2021/05/02 09:04:16;;;;;;;2.67;1.30;;;13.20;99.90;;;;;;5052119;28;20211;-75
2021/05/02 09:06:41;;;;;;;2.80;1.40;;;13.10;99.90;;;;;;5035727;28;20170;-74
2021/05/02 09:09:08;;;;;;;3.10;1.40;;;12.60;99.90;;;;;;5052235;28;20645;-74
2021/05/02 09:11:38;;;;;;;1.87;1.20;;;12.00;99.90;;;;;;5052391;28;20185;-75
2021/05/02 09:14:10;;;;;;;3.17;1.37;;;11.60;99.90;;;;;;5052090;28;20178;-75
2021/05/02 09:16:50;;;;;;;2.83;1.40;;;11.50;99.90;;;;;;5036089;28;20161;-74
2021/05/02 09:19:16;;;;;;;3.30;1.40;;;12.00;99.90;;;;;;5053370;28;20707;-77
2021/05/02 09:21:43;;;;;;;4.77;1.47;;;12.00;99.90;;;;;;5018995;28;20569;-76
2021/05/02 09:24:31;;;;;;;3.73;1.60;;;11.90;99.90;;;;;;5018794;28;20181;-74
2021/05/02 09:27:15;;;;;;;2.67;1.27;;;11.80;99.90;;;;;;5052099;28;20681;-75
2021/05/02 09:29:42;;;;;;;2.03;1.40;;;11.90;99.90;;;;;;5034320;28;20172;-75
2021/05/02 09:32:12;;;;;;;3.00;1.40;;;12.40;99.90;;;;;;5018896;28;20201;-75
2021/05/02 09:34:46;;;;;;;3.03;1.30;;;12.80;99.90;;;;;;5029503;28;20177;-76
2021/05/02 09:37:12;;;;;;;4.57;1.63;;;13.70;99.90;;;;;;5055179;28;20185;-75
2021/05/02 09:39:38;;;;;;;2.77;1.47;;;14.10;99.90;;;;;;5071576;28;20177;-75
2021/05/02 09:42:09;;;;;;;3.53;1.40;;;13.80;99.90;;;;;;5036085;28;20352;-74
2021/05/02 09:44:44;;;;;;;2.77;1.60;;;13.30;99.90;;;;;;5038578;23;20310;-77
2021/05/02 09:47:29;;;;;;;2.83;1.33;;;13.00;99.90;;;;;;5011809;28;20186;-76
2021/05/02 09:50:04;;;;;;;3.50;1.50;;;14.10;99.90;;;;;;5011820;28;20230;-77
2021/05/02 09:53:02;;;;;;;3.67;1.60;;;15.30;99.90;;;;;;5012984;28;20191;-78
2021/05/02 09:55:33;;;;;;;3.63;1.60;;;14.60;99.90;;;;;;4989720;28;20235;-77
2021/05/02 09:58:04;;;;;;;3.97;1.50;;;13.90;99.90;;;;;;4991342;28;20210;-78
2021/05/02 10:00:30;;;;;;;4.03;1.40;;;13.40;99.90;;;;;;5013599;28;20217;-77
2021/05/02 10:02:56;;;;;;;1.93;1.40;;;13.00;99.90;;;;;;4998381;28;20276;-77
2021/05/02 10:05:22;;;;;;;3.77;1.67;;;12.60;99.90;;;;;;4980582;28;20281;-77
2021/05/02 10:07:48;;;;;;;3.33;1.43;;;12.20;99.90;;;;;;5000172;28;20167;-77
2021/05/02 10:10:14;;;;;;;4.40;1.47;;;11.90;99.90;;;;;;4995293;28;20316;-77
2021/05/02 10:12:41;;;;;;;2.30;1.40;;;11.80;99.90;;;;;;4984264;28;20207;-76
2021/05/02 10:15:08;;;;;;;3.63;1.50;;;11.80;99.90;;;;;;5012344;28;20684;-76
2021/05/02 10:17:34;;;;;;;3.63;1.60;;;11.80;99.90;;;;;;4995445;28;20191;-76
2021/05/02 10:20:00;;;;;;;4.67;1.37;;;11.70;99.90;;;;;;4995140;28;20245;-76
2021/05/02 10:22:26;;;;;;;3.93;1.60;;;11.70;99.90;;;;;;4995070;28;20275;-76
2021/05/02 10:24:52;;;;;;;2.97;1.63;;;11.70;99.90;;;;;;4987571;28;20211;-77
2021/05/02 10:27:18;;;;;;;2.73;1.60;;;11.60;99.90;;;;;;4976267;28;20713;-78
2021/05/02 10:29:47;;;;;;;5.53;1.67;;;12.20;99.90;;;;;;4992559;28;20521;-76
2021/05/02 10:32:13;;;;;;;3.10;1.80;;;13.00;99.90;;;;;;4974308;28;20217;-78
2021/05/02 10:34:40;;;;;;;2.07;1.30;;;13.60;99.90;;;;;;5013139;28;20257;-76
2021/05/02 10:37:24;;;;;;;4.80;1.23;;;13.40;99.90;;;;;;5017516;28;20179;-78
2021/05/02 10:39:56;;;;;;;3.40;1.77;;;13.10;99.90;;;;;;5023067;28;20171;-76
2021/05/02 10:42:40;;;;;;;3.80;1.37;;;12.90;99.90;;;;;;5022720;28;20701;-76
2021/05/02 10:45:28;;;;;;;2.40;1.20;;;12.60;99.90;;;;;;5028088;28;20715;-76
2021/05/02 10:47:57;;;;;;;1.43;1.00;;;12.40;99.90;;;;;;5012662;28;20604;-75
2021/05/02 10:50:33;;;;;;;2.77;1.27;;;12.50;99.90;;;;;;4995620;28;20171;-76
2021/05/02 10:53:01;;;;;;;6.53;3.43;;;13.10;99.90;;;;;;5011737;28;20179;-76
2021/05/02 10:55:48;;;;;;;3.80;1.77;;;13.70;99.90;;;;;;5011994;28;20230;-76
2021/05/02 10:58:33;;;;;;;2.80;1.00;;;14.20;99.90;;;;;;5012857;28;20225;-76
2021/05/02 11:01:11;;;;;;;4.30;1.30;;;13.80;99.60;;;;;;4994804;28;20265;-76
2021/05/02 11:06:08;;;;;;;5.63;3.00;;;12.60;99.90;;;;;;5012056;28;20250;-75
2021/05/02 11:08:47;;;;;;;8.23;5.33;;;12.50;99.90;;;;;;5027080;28;20247;-75
2021/05/02 11:14:26;;;;;;;2.23;1.57;;;12.00;99.90;;;;;;5012513;28;20574;-79
2021/05/02 11:16:54;;;;;;;4.23;1.97;;;11.80;99.90;;;;;;5010166;28;20178;-78
2021/05/02 11:19:22;;;;;;;5.80;3.63;;;11.80;99.90;;;;;;5009734;28;20186;-78
2021/05/02 11:21:51;;;;;;;3.93;1.70;;;11.80;99.90;;;;;;4993687;28;20245;-78
2021/05/02 11:24:26;;;;;;;3.43;2.33;;;11.90;99.90;;;;;;5026514;28;20194;-78
2021/05/02 11:32:03;;;;;;;16.73;12.47;;;11.90;99.90;;;;;;4995689;28;20181;-76
2021/05/02 11:34:51;;;;;;;11.53;5.73;;;12.10;99.90;;;;;;4995571;28;20195;-78
2021/05/02 11:37:48;;;;;;;7.40;5.77;;;12.30;99.90;;;;;;4995901;28;20183;-77
2021/05/02 11:40:32;;;;;;;2.80;2.23;;;12.40;99.90;;;;;;5015315;28;20175;-77
2021/05/02 11:42:57;;;;;;;5.63;2.37;;;12.70;99.90;;;;;;5010266;28;20199;-76
2021/05/02 11:45:40;;;;;;;7.23;4.83;;;13.10;99.90;;;;;;5011306;28;20203;-77
2021/05/02 11:48:07;;;;;;;3.50;2.20;;;13.30;99.90;;;;;;4980557;28;20214;-77
2021/05/02 11:50:42;;;;;;;3.13;1.10;;;13.20;99.90;;;;;;4978441;28;20181;-76
2021/05/02 11:53:07;;;;;;;2.37;1.00;;;13.10;99.90;;;;;;5014850;28;20211;-77
2021/05/02 11:55:40;;;;;;;3.10;0.93;;;13.00;99.90;;;;;;4991557;28;20230;-78
2021/05/02 11:58:13;;;;;;;2.37;1.00;;;13.30;99.90;;;;;;5013484;28;20202;-78
2021/05/02 12:00:44;;;;;;;2.60;1.00;;;13.50;99.90;;;;;;4993770;28;20172;-78
2021/05/02 12:03:13;;;;;;;1.40;1.00;;;13.80;99.90;;;;;;4992418;28;20721;-77
2021/05/02 12:05:52;;;;;;;2.37;1.03;;;14.20;99.90;;;;;;4980837;28;20226;-79
2021/05/02 12:08:18;;;;;;;2.17;0.80;;;14.50;99.90;;;;;;5008378;28;20178;-78
2021/05/02 12:10:44;;;;;;;2.87;1.10;;;14.40;99.90;;;;;;5000914;28;20184;-77
2021/05/02 12:13:28;;;;;;;2.90;1.13;;;14.40;99.90;;;;;;5013576;28;20188;-79
2021/05/02 12:16:03;;;;;;;2.97;1.00;;;14.50;99.90;;;;;;5034710;28;20205;-79
2021/05/02 12:18:49;;;;;;;2.77;0.80;;;15.10;99.90;;;;;;5035787;28;20183;-78
2021/05/02 12:21:28;;;;;;;2.43;0.80;;;15.20;99.20;;;;;;5006333;28;20171;-78
2021/05/02 12:24:04;;;;;;;3.13;1.07;;;14.60;98.10;;;;;;5017206;28;20277;-78
2021/05/02 12:26:29;;;;;;;1.53;0.90;;;14.20;99.90;;;;;;4993798;28;20271;-78
2021/05/02 12:28:57;;;;;;;3.73;1.03;;;13.70;99.90;;;;;;4980133;28;20339;-78
2021/05/02 12:31:22;;;;;;;2.17;1.07;;;13.40;99.90;;;;;;4979951;28;20187;-79
2021/05/02 12:33:48;;;;;;;2.47;0.83;;;13.00;99.90;;;;;;4982568;28;20187;-79
2021/05/02 12:36:14;;;;;;;3.80;1.30;;;12.60;99.90;;;;;;4980603;28;20187;-79
2021/05/02 12:38:40;;;;;;;1.93;1.00;;;12.30;99.90;;;;;;4997993;28;20203;-79
2021/05/02 12:41:06;;;;;;;2.00;1.00;;;12.00;99.90;;;;;;4981811;28;20180;-79
2021/05/02 12:43:32;;;;;;;3.07;1.00;;;11.80;99.90;;;;;;4993162;28;20215;-78
2021/05/02 12:45:58;;;;;;;3.33;1.10;;;11.70;99.90;;;;;;4978582;28;20550;-78
2021/05/02 12:48:36;;;;;;;1.13;0.80;;;11.60;99.90;;;;;;4996021;28;20239;-78
2021/05/02 12:51:02;;;;;;;2.63;0.90;;;11.70;99.90;;;;;;4999068;28;20187;-77
2021/05/02 12:53:38;;;;;;;2.30;1.00;;;11.90;99.90;;;;;;4982259;28;20249;-79
2021/05/02 12:56:04;;;;;;;1.33;0.73;;;12.10;99.90;;;;;;4980684;28;20217;-79
2021/05/02 12:58:33;;;;;;;1.57;0.70;;;12.20;99.90;;;;;;4979560;28;20213;-78
2021/05/02 13:01:02;;;;;;;1.53;0.90;;;12.60;98.60;;;;;;5003236;28;20183;-78